Time;durP1;ratioP1;P1;durP2;ratioP2;P2;SDS_P1;SDS_P2;PMS_P1;PMS_P2;Temp;Humidity;BMP_temperature;BMP_pressure;BME280_temperature;BME280_humidity;BME280_pressure;Samples;Min_cycle;Max_cycle;Signal;HPM_P1;HPM_P2
2023/03/22 00:01:14;;;;;;;;;;;;;;;;;;5116378;28;19908;-68
2023/03/22 00:03:40;;;;;;;;;;;;;;;;;;5115969;28;19943;-67
2023/03/22 00:06:06;;;;;;;;;;;;;;;;;;5115972;28;19954;-67
2023/03/22 00:08:32;;;;;;;;;;;;;;;;;;5114996;28;20309;-67
2023/03/22 00:10:58;;;;;;;;;;;;;;;;;;5114909;28;19987;-67
2023/03/22 00:13:24;;;;;;;;;;;;;;;;;;5115798;28;20256;-67
2023/03/22 00:15:50;;;;;;;;;;;;;;;;;;5116293;28;19952;-67
2023/03/22 00:18:16;;;;;;;;;;;;;;;;;;5116290;28;19908;-67
2023/03/22 00:20:42;;;;;;;;;;;;;;;;;;5116122;28;19933;-67
2023/03/22 00:23:08;;;;;;;;;;;;;;;;;;5116107;28;19920;-67
2023/03/22 00:25:34;;;;;;;;;;;;;;;;;;5115636;28;19908;-67
2023/03/22 00:28:00;;;;;;;;;;;;;;;;;;5116407;28;19915;-67
2023/03/22 00:30:26;;;;;;;;;;;;;;;;;;5116384;28;19911;-67
2023/03/22 00:32:52;;;;;;;;;;;;;;;;;;5114091;28;19917;-67
2023/03/22 00:35:18;;;;;;;;;;;;;;;;;;5116299;28;19915;-67
2023/03/22 00:37:44;;;;;;;;;;;;;;;;;;5114351;28;19998;-67
2023/03/22 00:40:10;;;;;;;;;;;;;;;;;;5115457;28;19914;-67
2023/03/22 00:42:36;;;;;;;;;;;;;;;;;;5115500;28;19960;-67
2023/03/22 00:45:01;;;;;;;;;;;;;;;;;;5115832;28;19915;-67
2023/03/22 00:47:27;;;;;;;;;;;;;;;;;;5112932;28;19912;-67
2023/03/22 00:49:53;;;;;;;;;;;;;;;;;;5115760;28;19907;-67
2023/03/22 00:52:20;;;;;;;;;;;;;;;;;;5115418;28;19908;-67
2023/03/22 00:54:46;;;;;;;;;;;;;;;;;;5115159;28;19908;-67
2023/03/22 00:57:13;;;;;;;;;;;;;;;;;;5115530;28;20295;-67
2023/03/22 00:59:39;;;;;;;;;;;;;;;;;;5115258;28;19947;-67
2023/03/22 01:02:05;;;;;;;;;;;;;;;;;;5113266;28;19920;-67
2023/03/22 01:04:31;;;;;;;;;;;;;;;;;;5115249;28;19908;-67
2023/03/22 01:07:02;;;;;;;;;;;;;;;;;;5115415;28;19915;-67
2023/03/22 01:09:29;;;;;;;;;;;;;;;;;;5114712;28;19991;-67
2023/03/22 01:11:55;;;;;;;;;;;;;;;;;;5115084;28;20018;-67
2023/03/22 01:14:21;;;;;;;;;;;;;;;;;;5115547;28;20360;-67
2023/03/22 01:16:47;;;;;;;;;;;;;;;;;;5114941;28;19908;-67
2023/03/22 01:19:14;;;;;;;;;;;;;;;;;;5114930;28;19999;-67
2023/03/22 01:21:39;;;;;;;;;;;;;;;;;;5114616;28;19914;-67
2023/03/22 01:24:05;;;;;;;;;;;;;;;;;;5114797;28;19912;-66
2023/03/22 01:26:31;;;;;;;;;;;;;;;;;;5115080;28;20041;-66
2023/03/22 01:28:57;;;;;;;;;;;;;;;;;;5114597;28;19915;-66
2023/03/22 01:31:23;;;;;;;;;;;;;;;;;;5113399;28;19912;-67
2023/03/22 01:33:49;;;;;;;;;;;;;;;;;;5114634;28;19908;-67
2023/03/22 01:36:15;;;;;;;;;;;;;;;;;;5114595;28;20338;-67
2023/03/22 01:38:41;;;;;;;;;;;;;;;;;;5114853;28;19969;-66
2023/03/22 01:41:07;;;;;;;;;;;;;;;;;;5114568;28;19914;-66
2023/03/22 01:43:33;;;;;;;;;;;;;;;;;;5114025;28;19916;-67
2023/03/22 01:45:59;;;;;;;;;;;;;;;;;;5114577;28;19926;-66
2023/03/22 01:48:25;;;;;;;;;;;;;;;;;;5114405;28;19954;-66
2023/03/22 01:50:54;;;;;;;;;;;;;;;;;;5113984;28;19908;-67
2023/03/22 01:53:22;;;;;;;;;;;;;;;;;;5114359;28;19907;-67
2023/03/22 01:55:48;;;;;;;;;;;;;;;;;;5114353;28;19908;-67
2023/03/22 01:58:16;;;;;;;;;;;;;;;;;;5113710;28;19915;-67
2023/03/22 02:00:42;;;;;;;;;;;;;;;;;;5112984;28;19908;-66
2023/03/22 02:03:08;;;;;;;;;;;;;;;;;;5113923;28;19927;-66
2023/03/22 02:05:34;;;;;;;;;;;;;;;;;;5113880;28;19953;-66
2023/03/22 02:08:00;;;;;;;;;;;;;;;;;;5113172;28;19915;-66
2023/03/22 02:10:26;;;;;;;;;;;;;;;;;;5112914;28;19908;-66
2023/03/22 02:12:52;;;;;;;;;;;;;;;;;;5113731;28;20325;-66
2023/03/22 02:15:18;;;;;;;;;;;;;;;;;;5114143;28;19999;-66
2023/03/22 02:17:44;;;;;;;;;;;;;;;;;;5113698;28;19907;-66
2023/03/22 02:20:10;;;;;;;;;;;;;;;;;;5112862;28;19957;-66
2023/03/22 02:22:37;;;;;;;;;;;;;;;;;;5114071;28;19916;-66
2023/03/22 02:25:03;;;;;;;;;;;;;;;;;;5113767;28;20324;-66
2023/03/22 02:27:29;;;;;;;;;;;;;;;;;;5114030;28;19943;-66
2023/03/22 02:29:55;;;;;;;;;;;;;;;;;;5114046;28;19930;-67
2023/03/22 02:32:21;;;;;;;;;;;;;;;;;;5112366;28;19911;-67
2023/03/22 02:34:47;;;;;;;;;;;;;;;;;;5114262;28;19908;-67
2023/03/22 02:37:13;;;;;;;;;;;;;;;;;;5113936;28;19915;-66
2023/03/22 02:39:39;;;;;;;;;;;;;;;;;;5113837;28;20006;-66
2023/03/22 02:42:05;;;;;;;;;;;;;;;;;;5114081;28;19915;-66
2023/03/22 02:44:31;;;;;;;;;;;;;;;;;;5113951;28;19998;-66
2023/03/22 02:46:57;;;;;;;;;;;;;;;;;;5113456;28;19961;-66
2023/03/22 02:49:23;;;;;;;;;;;;;;;;;;5112607;28;19907;-66
2023/03/22 02:51:49;;;;;;;;;;;;;;;;;;5113743;28;20018;-67
2023/03/22 02:54:17;;;;;;;;;;;;;;;;;;5113404;28;19915;-67
2023/03/22 02:56:43;;;;;;;;;;;;;;;;;;5112394;28;19908;-67
2023/03/22 02:59:10;;;;;;;;;;;;;;;;;;5113725;28;19919;-67
2023/03/22 03:01:36;;;;;;;;;;;;;;;;;;5111750;28;19908;-67
2023/03/22 03:04:03;;;;;;;;;;;;;;;;;;5113970;28;20352;-67
2023/03/22 03:06:30;;;;;;;;;;;;;;;;;;5113920;28;19907;-67
2023/03/22 03:08:56;;;;;;;;;;;;;;;;;;5113258;28;19911;-67
2023/03/22 03:11:22;;;;;;;;;;;;;;;;;;5117250;28;19907;-67
2023/03/22 03:13:48;;;;;;;;;;;;;;;;;;5117557;28;19912;-67
2023/03/22 03:16:16;;;;;;;;;;;;;;;;;;5116936;28;19908;-67
2023/03/22 03:18:45;;;;;;;;;;;;;;;;;;5117518;28;19908;-66
2023/03/22 03:21:13;;;;;;;;;;;;;;;;;;5116717;28;20394;-67
2023/03/22 03:23:39;;;;;;;;;;;;;;;;;;5117061;28;19920;-67
2023/03/22 03:26:05;;;;;;;;;;;;;;;;;;5117119;28;19953;-67
2023/03/22 03:28:37;;;;;;;;;;;;;;;;;;5116702;28;19953;-67
2023/03/22 03:31:03;;;;;;;;;;;;;;;;;;5117078;28;19908;-67
2023/03/22 03:33:29;;;;;;;;;;;;;;;;;;5116961;28;19911;-67
2023/03/22 03:35:55;;;;;;;;;;;;;;;;;;5116469;28;19974;-67
2023/03/22 03:38:21;;;;;;;;;;;;;;;;;;5116855;28;19908;-67
2023/03/22 03:40:47;;;;;;;;;;;;;;;;;;5115547;28;20269;-67
2023/03/22 03:43:13;;;;;;;;;;;;;;;;;;5116264;28;19923;-67
2023/03/22 03:45:39;;;;;;;;;;;;;;;;;;5116707;28;20281;-67
2023/03/22 03:48:05;;;;;;;;;;;;;;;;;;5116625;28;19929;-67
2023/03/22 03:50:31;;;;;;;;;;;;;;;;;;5116251;28;19931;-67
2023/03/22 03:52:57;;;;;;;;;;;;;;;;;;5116634;28;20356;-67
2023/03/22 03:55:23;;;;;;;;;;;;;;;;;;5116551;28;19961;-67
2023/03/22 03:57:49;;;;;;;;;;;;;;;;;;5114780;28;19936;-67
2023/03/22 04:00:15;;;;;;;;;;;;;;;;;;5116481;28;20278;-67
2023/03/22 04:02:41;;;;;;;;;;;;;;;;;;5116330;28;19924;-67
2023/03/22 04:05:07;;;;;;;;;;;;;;;;;;5115974;28;19907;-67
2023/03/22 04:07:33;;;;;;;;;;;;;;;;;;5116295;28;20002;-67
2023/03/22 04:09:59;;;;;;;;;;;;;;;;;;5116352;28;19934;-67
2023/03/22 04:12:25;;;;;;;;;;;;;;;;;;5115792;28;19981;-67
2023/03/22 04:14:51;;;;;;;;;;;;;;;;;;5114934;28;20287;-67
2023/03/22 04:17:17;;;;;;;;;;;;;;;;;;5115716;28;20367;-67
2023/03/22 04:19:44;;;;;;;;;;;;;;;;;;5114838;28;20264;-68
2023/03/22 04:22:13;;;;;;;;;;;;;;;;;;5115980;28;19912;-68
2023/03/22 04:24:40;;;;;;;;;;;;;;;;;;5115655;28;19923;-67
2023/03/22 04:27:07;;;;;;;;;;;;;;;;;;5115889;28;20476;-67
2023/03/22 04:29:35;;;;;;;;;;;;;;;;;;5115971;28;19908;-67
2023/03/22 04:32:01;;;;;;;;;;;;;;;;;;5115416;28;19943;-68
2023/03/22 04:34:26;;;;;;;;;;;;;;;;;;5114590;28;19958;-68
2023/03/22 04:36:53;;;;;;;;;;;;;;;;;;5115806;28;19976;-69
2023/03/22 04:39:19;;;;;;;;;;;;;;;;;;5115652;28;19912;-67
2023/03/22 04:41:45;;;;;;;;;;;;;;;;;;5114317;28;19907;-67
2023/03/22 04:44:11;;;;;;;;;;;;;;;;;;5114321;28;19918;-67
2023/03/22 04:46:37;;;;;;;;;;;;;;;;;;5115338;28;19907;-67
2023/03/22 04:49:02;;;;;;;;;;;;;;;;;;5115533;28;20322;-67
2023/03/22 04:51:29;;;;;;;;;;;;;;;;;;5115482;28;19957;-68
2023/03/22 04:53:55;;;;;;;;;;;;;;;;;;5115170;28;19908;-66
2023/03/22 04:56:21;;;;;;;;;;;;;;;;;;5115621;28;19908;-66
2023/03/22 04:58:47;;;;;;;;;;;;;;;;;;5115280;28;19915;-66
2023/03/22 05:01:13;;;;;;;;;;;;;;;;;;5113709;28;20249;-66
2023/03/22 05:03:40;;;;;;;;;;;;;;;;;;5114958;28;19931;-67
2023/03/22 05:06:05;;;;;;;;;;;;;;;;;;5115300;28;20003;-67
2023/03/22 05:08:31;;;;;;;;;;;;;;;;;;5113487;28;19963;-69
2023/03/22 05:10:57;;;;;;;;;;;;;;;;;;5114926;28;19973;-68
2023/03/22 05:13:23;;;;;;;;;;;;;;;;;;5113719;28;19908;-68
2023/03/22 05:15:50;;;;;;;;;;;;;;;;;;5114244;28;19908;-68
2023/03/22 05:18:16;;;;;;;;;;;;;;;;;;5114904;28;19911;-68
2023/03/22 05:20:42;;;;;;;;;;;;;;;;;;5114502;28;19961;-68
2023/03/22 05:23:08;;;;;;;;;;;;;;;;;;5113386;28;19916;-68
2023/03/22 05:25:34;;;;;;;;;;;;;;;;;;5113604;28;19908;-68
2023/03/22 05:28:00;;;;;;;;;;;;;;;;;;5112323;28;20371;-67
2023/03/22 05:30:27;;;;;;;;;;;;;;;;;;5112682;28;20237;-67
2023/03/22 05:32:55;;;;;;;;;;;;;;;;;;5112196;28;19908;-68
2023/03/22 05:35:20;;;;;;;;;;;;;;;;;;5112187;28;19911;-68
2023/03/22 05:37:46;;;;;;;;;;;;;;;;;;5113469;28;20245;-67
2023/03/22 05:40:13;;;;;;;;;;;;;;;;;;5114580;28;20318;-67
2023/03/22 05:42:39;;;;;;;;;;;;;;;;;;5113233;28;19920;-67
2023/03/22 05:45:05;;;;;;;;;;;;;;;;;;5114788;28;19953;-66
2023/03/22 05:47:31;;;;;;;;;;;;;;;;;;5113217;28;20306;-68
2023/03/22 05:49:57;;;;;;;;;;;;;;;;;;5113056;28;19961;-66
2023/03/22 05:52:23;;;;;;;;;;;;;;;;;;5114144;28;19908;-67
2023/03/22 05:54:49;;;;;;;;;;;;;;;;;;5114417;28;19921;-67
2023/03/22 05:57:16;;;;;;;;;;;;;;;;;;5112616;28;19908;-67
2023/03/22 05:59:42;;;;;;;;;;;;;;;;;;5114615;28;20343;-68
2023/03/22 06:02:08;;;;;;;;;;;;;;;;;;5112244;28;19919;-68
2023/03/22 06:04:34;;;;;;;;;;;;;;;;;;5110472;28;19908;-67
2023/03/22 06:07:00;;;;;;;;;;;;;;;;;;5112222;28;20045;-67
2023/03/22 06:09:26;;;;;;;;;;;;;;;;;;5112207;28;19908;-67
2023/03/22 06:11:52;;;;;;;;;;;;;;;;;;5111755;28;19912;-68
2023/03/22 06:14:18;;;;;;;;;;;;;;;;;;5112041;28;19914;-67
2023/03/22 06:16:43;;;;;;;;;;;;;;;;;;5110003;28;19911;-67
2023/03/22 06:19:09;;;;;;;;;;;;;;;;;;5113446;28;19947;-69
2023/03/22 06:21:42;;;;;;;;;;;;;;;;;;5112682;28;19961;-69
2023/03/22 06:24:08;;;;;;;;;;;;;;;;;;5113074;28;19916;-69
2023/03/22 06:26:34;;;;;;;;;;;;;;;;;;5113590;28;19915;-69
2023/03/22 06:29:02;;;;;;;;;;;;;;;;;;5111108;28;19919;-68
2023/03/22 06:31:28;;;;;;;;;;;;;;;;;;5109323;28;19908;-68
2023/03/22 06:33:54;;;;;;;;;;;;;;;;;;5104130;28;20257;-68
2023/03/22 06:36:20;;;;;;;;;;;;;;;;;;5110797;28;19918;-67
2023/03/22 06:38:46;;;;;;;;;;;;;;;;;;5110192;28;19912;-66
2023/03/22 06:41:12;;;;;;;;;;;;;;;;;;5111862;28;19952;-66
2023/03/22 06:43:38;;;;;;;;;;;;;;;;;;5111864;28;20003;-66
2023/03/22 06:46:07;;;;;;;;;;;;;;;;;;5114211;28;19908;-67
2023/03/22 06:48:33;;;;;;;;;;;;;;;;;;5114651;28;20397;-65
2023/03/22 06:50:59;;;;;;;;;;;;;;;;;;5115990;28;20053;-66
2023/03/22 06:53:25;;;;;;;;;;;;;;;;;;5113981;28;19949;-67
2023/03/22 06:55:51;;;;;;;;;;;;;;;;;;5115677;28;19950;-68
2023/03/22 06:58:17;;;;;;;;;;;;;;;;;;5113860;28;20037;-68
2023/03/22 07:00:43;;;;;;;;;;;;;;;;;;5113679;28;19907;-67
2023/03/22 07:03:09;;;;;;;;;;;;;;;;;;5115948;28;19924;-68
2023/03/22 07:05:35;;;;;;;;;;;;;;;;;;5116577;28;19912;-67
2023/03/22 07:08:01;;;;;;;;;;;;;;;;;;5115230;28;20374;-67
2023/03/22 07:10:27;;;;;;;;;;;;;;;;;;5115420;28;19930;-67
2023/03/22 07:12:53;;;;;;;;;;;;;;;;;;5114110;27;19908;-68
2023/03/22 07:15:23;;;;;;;;;;;;;;;;;;5115856;28;20007;-68
2023/03/22 07:17:49;;;;;;;;;;;;;;;;;;5114273;28;19912;-68
2023/03/22 07:20:15;;;;;;;;;;;;;;;;;;5114908;28;19944;-69
2023/03/22 07:22:41;;;;;;;;;;;;;;;;;;5114780;28;20347;-68
2023/03/22 07:25:07;;;;;;;;;;;;;;;;;;5112873;28;20362;-69
2023/03/22 07:27:33;;;;;;;;;;;;;;;;;;5113607;28;20322;-69
2023/03/22 07:29:59;;;;;;;;;;;;;;;;;;5116306;28;20371;-70
2023/03/22 07:32:25;;;;;;;;;;;;;;;;;;5112736;28;19916;-69
2023/03/22 07:34:51;;;;;;;;;;;;;;;;;;5113364;28;19908;-69
2023/03/22 07:37:17;;;;;;;;;;;;;;;;;;5113123;28;20356;-69
2023/03/22 07:39:43;;;;;;;;;;;;;;;;;;5112107;28;20361;-69
2023/03/22 07:42:18;;;;;;;;;;;;;;;;;;5114629;28;20295;-70
2023/03/22 07:44:45;;;;;;;;;;;;;;;;;;5108209;28;19916;-70
2023/03/22 07:47:11;;;;;;;;;;;;;;;;;;5097898;28;20363;-73
2023/03/22 07:49:37;;;;;;;;;;;;;;;;;;5103887;28;19912;-72
2023/03/22 07:52:03;;;;;;;;;;;;;;;;;;5109615;28;19908;-70
2023/03/22 07:54:29;;;;;;;;;;;;;;;;;;5111006;28;19931;-71
2023/03/22 07:56:55;;;;;;;;;;;;;;;;;;5106901;28;19994;-70
2023/03/22 07:59:22;;;;;;;;;;;;;;;;;;5111197;28;19915;-70
2023/03/22 08:01:48;;;;;;;;;;;;;;;;;;5109178;28;19918;-68
2023/03/22 08:04:14;;;;;;;;;;;;;;;;;;5110727;28;19908;-69
2023/03/22 08:06:41;;;;;;;;;;;;;;;;;;5110833;28;19908;-67
2023/03/22 08:09:07;;;;;;;;;;;;;;;;;;5111270;28;19908;-68
2023/03/22 08:11:33;;;;;;;;;;;;;;;;;;5111995;28;20002;-67
2023/03/22 08:13:59;;;;;;;;;;;;;;;;;;5104881;28;19961;-69
2023/03/22 08:16:25;;;;;;;;;;;;;;;;;;5106658;28;20490;-68
2023/03/22 08:18:51;;;;;;;;;;;;;;;;;;5109486;28;20018;-67
2023/03/22 08:21:17;;;;;;;;;;;;;;;;;;5113753;28;20364;-67
2023/03/22 08:23:43;;;;;;;;;;;;;;;;;;5110671;28;20015;-68
2023/03/22 08:26:09;;;;;;;;;;;;;;;;;;5110635;28;19919;-68
2023/03/22 08:28:35;;;;;;;;;;;;;;;;;;5114480;28;19908;-67
2023/03/22 08:35:07;;;;;;;;;;;;;;;;;;5107429;28;19939;-67
2023/03/22 08:37:33;;;;;;;;;;;;;;;;;;5097372;28;20323;-67
2023/03/22 08:41:55;;;;;;;;;;;;;;;;;;5088756;27;19918;-66
2023/03/22 08:44:21;;;;;;;;;;;;;;;;;;5087771;28;19912;-66
2023/03/22 08:48:36;;;;;;;;;;;;;;;;;;5089188;28;19912;-67
2023/03/22 08:51:03;;;;;;;;;;;;;;;;;;5089642;28;20340;-65
2023/03/22 08:54:35;;;;;;;;;;;;;;;;;;5109170;27;20364;-66
2023/03/22 08:57:02;;;;;;;;;;;;;;;;;;5095268;28;20356;-67
2023/03/22 08:59:28;;;;;;;;;;;;;;;;;;5089958;28;19916;-67
2023/03/22 09:02:05;;;;;;;;;;;;;;;;;;5085755;27;20283;-68
2023/03/22 09:06:33;;;;;;;;;;;;;;;;;;5144932;27;19925;-66
2023/03/22 09:08:59;;;;;;;;;;;;;;;;;;5107213;27;20498;-65
2023/03/22 09:11:25;;;;;;;;;;;;;;;;;;5108822;28;19918;-65
2023/03/22 09:13:51;;;;;;;;;;;;;;;;;;5112017;27;19916;-66
2023/03/22 09:17:38;;;;;;;;;;;;;;;;;;5145005;27;20015;-67
2023/03/22 09:20:17;;;;;;;;;;;;;;;;;;5089340;27;19919;-67
2023/03/22 09:22:43;;;;;;;;;;;;;;;;;;5084601;28;20031;-67
2023/03/22 09:29:20;;;;;;;;;;;;;;;;;;5068224;27;19938;-66
2023/03/22 09:31:49;;;;;;;;;;;;;;;;;;5067424;28;19913;-66
2023/03/22 09:35:43;;;;;;;;;;;;;;;;;;5089721;27;19913;-65
2023/03/22 09:38:09;;;;;;;;;;;;;;;;;;5088593;28;19953;-65
2023/03/22 09:40:35;;;;;;;;;;;;;;;;;;5088407;28;19954;-66
2023/03/22 09:43:36;;;;;;;;;;;;;;;;;;5084807;27;20500;-67
2023/03/22 09:47:24;;;;;;;;;;;;;;;;;;5088388;27;19916;-68
2023/03/22 09:50:35;;;;;;;;;;;;;;;;;;5121223;27;19912;-66
2023/03/22 09:53:02;;;;;;;;;;;;;;;;;;5104403;28;19959;-67
2023/03/22 09:56:13;;;;;;;;;;;;;;;;;;5051921;27;2223409;-67
2023/03/22 09:58:39;;;;;;;;;;;;;;;;;;5137896;27;19911;-65
2023/03/22 10:02:11;;;;;;;;;;;;;;;;;;5161463;27;19922;-65
2023/03/22 10:08:48;;;;;;;;;;;;;;;;;;5088756;27;19917;-66
2023/03/22 10:11:14;;;;;;;;;;;;;;;;;;5088392;28;19917;-67
2023/03/22 10:15:59;;;;;;;;;;;;;;;;;;5088749;27;19913;-65
2023/03/22 10:18:25;;;;;;;;;;;;;;;;;;5081349;28;19956;-65
2023/03/22 10:22:49;;;;;;;;;;;;;;;;;;5109518;27;19991;-66
2023/03/22 10:25:15;;;;;;;;;;;;;;;;;;5109081;28;19967;-67
2023/03/22 10:27:41;;;;;;;;;;;;;;;;;;5098293;28;19950;-67
2023/03/22 10:31:13;;;;;;;;;;;;;;;;;;5081113;27;19921;-67
2023/03/22 10:33:39;;;;;;;;;;;;;;;;;;5074173;28;19994;-66
2023/03/22 10:36:05;;;;;;;;;;;;;;;;;;5087443;28;19915;-66
2023/03/22 10:40:06;;;;;;;;;;;;;;;;;;5090046;27;19912;-66
2023/03/22 10:42:32;;;;;;;;;;;;;;;;;;5080813;28;19913;-66
2023/03/22 10:44:58;;;;;;;;;;;;;;;;;;5085243;28;19938;-67
2023/03/22 10:47:24;;;;;;;;;;;;;;;;;;5085894;28;20379;-67
2023/03/22 10:49:53;;;;;;;;;;;;;;;;;;5087706;28;19916;-67
2023/03/22 10:54:08;;;;;;;;;;;;;;;;;;5129078;27;19919;-66
2023/03/22 11:02:36;;;;;;;;;;;;;;;;;;5126250;27;19912;-68
2023/03/22 11:05:06;;;;;;;;;;;;;;;;;;5129127;28;19968;-67
2023/03/22 11:07:31;;;;;;;;;;;;;;;;;;5128561;28;19908;-67
2023/03/22 11:09:57;;;;;;;;;;;;;;;;;;5128128;28;20354;-66
2023/03/22 11:12:24;;;;;;;;;;;;;;;;;;5094583;28;19961;-66
2023/03/22 11:15:41;;;;;;;;;;;;;;;;;;5072458;27;20498;-66
2023/03/22 11:18:07;;;;;;;;;;;;;;;;;;5084349;28;19921;-66
2023/03/22 11:20:55;;;;;;;;;;;;;;;;;;5169793;27;19918;-68
2023/03/22 11:23:21;;;;;;;;;;;;;;;;;;5169204;27;19953;-68
2023/03/22 11:25:47;;;;;;;;;;;;;;;;;;5157099;27;19958;-69
2023/03/22 11:30:35;;;;;;;;;;;;;;;;;;5086583;27;19918;-68
2023/03/22 11:33:02;;;;;;;;;;;;;;;;;;5084688;28;19920;-68
2023/03/22 11:36:29;;;;;;;;;;;;;;;;;;5091175;27;19959;-67
2023/03/22 11:38:55;;;;;;;;;;;;;;;;;;5087971;28;20407;-67
2023/03/22 11:41:21;;;;;;;;;;;;;;;;;;5086483;28;19955;-67
2023/03/22 11:43:47;;;;;;;;;;;;;;;;;;5086790;28;19920;-67
2023/03/22 11:48:07;;;;;;;;;;;;;;;;;;5150217;27;20389;-68
2023/03/22 11:50:34;;;;;;;;;;;;;;;;;;5151148;27;19990;-67
2023/03/22 11:55:26;;;;;;;;;;;;;;;;;;4989118;28;19924;-67
2023/03/22 11:57:52;;;;;;;;;;;;;;;;;;4989451;28;19914;-68
2023/03/22 12:02:51;;;;;;;;;;;;;;;;;;5110104;27;20287;-67
2023/03/22 12:05:17;;;;;;;;;;;;;;;;;;5109137;28;19916;-67
2023/03/22 12:07:43;;;;;;;;;;;;;;;;;;5108789;28;19966;-67
2023/03/22 12:12:26;;;;;;;;;;;;;;;;;;5149354;27;19926;-68
2023/03/22 12:15:31;;;;;;;;;;;;;;;;;;5110749;27;19998;-67
2023/03/22 12:19:37;;;;;;;;;;;;;;;;;;5150503;27;19930;-68
2023/03/22 12:22:03;;;;;;;;;;;;;;;;;;5150917;27;19911;-68
2023/03/22 12:24:29;;;;;;;;;;;;;;;;;;5149254;27;19907;-67
2023/03/22 12:26:55;;;;;;;;;;;;;;;;;;5131135;27;19907;-67
2023/03/22 12:29:21;;;;;;;;;;;;;;;;;;5148470;27;19969;-67
2023/03/22 12:31:47;;;;;;;;;;;;;;;;;;5149870;27;19911;-67
2023/03/22 12:38:08;;;;;;;;;;;;;;;;;;5089386;27;19917;-68
2023/03/22 12:40:34;;;;;;;;;;;;;;;;;;5089056;28;19947;-67
2023/03/22 12:42:59;;;;;;;;;;;;;;;;;;5090400;28;19912;-66
2023/03/22 12:45:25;;;;;;;;;;;;;;;;;;5089782;28;19965;-67
2023/03/22 12:47:51;;;;;;;;;;;;;;;;;;5090522;28;19915;-67
2023/03/22 12:50:17;;;;;;;;;;;;;;;;;;5089120;28;19952;-67
2023/03/22 12:52:44;;;;;;;;;;;;;;;;;;5090129;28;19908;-67
2023/03/22 12:56:21;;;;;;;;;;;;;;;;;;5110696;27;20404;-65
2023/03/22 12:58:47;;;;;;;;;;;;;;;;;;5108716;28;19916;-65
2023/03/22 13:02:12;;;;;;;;;;;;;;;;;;5151215;27;19912;-65
2023/03/22 13:04:41;;;;;;;;;;;;;;;;;;5152049;27;19918;-66
2023/03/22 13:07:07;;;;;;;;;;;;;;;;;;5151547;27;19908;-66
2023/03/22 13:09:33;;;;;;;;;;;;;;;;;;5133688;27;19953;-67
2023/03/22 13:14:31;;;;;;;;;;;;;;;;;;5152267;27;20450;-66
2023/03/22 13:16:57;;;;;;;;;;;;;;;;;;5133502;27;19998;-66
2023/03/22 13:19:22;;;;;;;;;;;;;;;;;;5147396;27;20014;-66
2023/03/22 13:21:48;;;;;;;;;;;;;;;;;;5133405;27;19918;-67
2023/03/22 13:24:15;;;;;;;;;;;;;;;;;;5149264;27;19907;-67
2023/03/22 13:27:05;;;;;;;;;;;;;;;;;;5089447;27;19912;-67
2023/03/22 13:31:52;;;;;;;;;;;;;;;;;;5151809;27;19918;-68
2023/03/22 13:35:38;;;;;;;;;;;;;;;;;;5089603;27;19922;-67
2023/03/22 13:38:03;;;;;;;;;;;;;;;;;;5088117;28;19912;-67
2023/03/22 13:42:10;;;;;;;;;;;;;;;;;;5109656;27;19916;-67
2023/03/22 13:44:37;;;;;;;;;;;;;;;;;;5109710;28;19935;-67
2023/03/22 13:51:05;;;;;;;;;;;;;;;;;;5108985;27;19916;-70
2023/03/22 13:54:43;;;;;;;;;;;;;;;;;;4271323;27;24657105;-73
2023/03/22 13:57:10;;;;;;;;;;;;;;;;;;5148228;27;20406;-73
2023/03/22 13:59:36;;;;;;;;;;;;;;;;;;5147734;27;19953;-72
2023/03/22 14:04:21;;;;;;;;;;;;;;;;;;5087207;27;19917;-73
2023/03/22 14:06:47;;;;;;;;;;;;;;;;;;5089006;28;20309;-68
2023/03/22 14:11:48;;;;;;;;;;;;;;;;;;5151408;27;19922;-67
2023/03/22 14:17:21;;;;;;;;;;;;;;;;;;5088044;27;20379;-67
2023/03/22 14:19:47;;;;;;;;;;;;;;;;;;5088923;28;19999;-68
2023/03/22 14:22:13;;;;;;;;;;;;;;;;;;5088612;28;19916;-68
2023/03/22 14:24:39;;;;;;;;;;;;;;;;;;5088906;28;19912;-68
2023/03/22 14:32:18;;;;;;;;;;;;;;;;;;5069380;28;20306;-68
2023/03/22 14:36:38;;;;;;;;;;;;;;;;;;5110626;27;20375;-69
2023/03/22 14:39:04;;;;;;;;;;;;;;;;;;5111111;28;19919;-67
2023/03/22 14:41:30;;;;;;;;;;;;;;;;;;5111314;28;19908;-68
2023/03/22 14:43:57;;;;;;;;;;;;;;;;;;5111094;28;19998;-69
2023/03/22 14:46:28;;;;;;;;;;;;;;;;;;5111542;28;19912;-67
2023/03/22 14:48:54;;;;;;;;;;;;;;;;;;5111498;28;19961;-67
2023/03/22 14:51:36;;;;;;;;;;;;;;;;;;5113557;27;19934;-67
2023/03/22 14:54:02;;;;;;;;;;;;;;;;;;5111378;28;20351;-68
2023/03/22 14:58:27;;;;;;;;;;;;;;;;;;5111553;27;19922;-67
2023/03/22 15:00:54;;;;;;;;;;;;;;;;;;5111632;28;19999;-68
2023/03/22 15:03:21;;;;;;;;;;;;;;;;;;5111484;28;19915;-68
2023/03/22 15:07:28;;;;;;;;;;;;;;;;;;5111698;27;19912;-67
2023/03/22 15:09:54;;;;;;;;;;;;;;;;;;5111557;28;19934;-67
2023/03/22 15:12:21;;;;;;;;;;;;;;;;;;5111278;28;19908;-67
2023/03/22 15:15:17;;;;;;;;;;;;;;;;;;5123865;27;19913;-68
2023/03/22 15:17:43;;;;;;;;;;;;;;;;;;5091143;28;19913;-68
2023/03/22 15:21:12;;;;;;;;;;;;;;;;;;5111572;27;20363;-67
2023/03/22 15:23:38;;;;;;;;;;;;;;;;;;5111476;28;19912;-67
2023/03/22 15:26:04;;;;;;;;;;;;;;;;;;5111265;28;20296;-68
2023/03/22 15:29:34;;;;;;;;;;;;;;;;;;5111701;27;19918;-66
2023/03/22 15:32:00;;;;;;;;;;;;;;;;;;5110514;28;19961;-68
2023/03/22 15:34:26;;;;;;;;;;;;;;;;;;5111112;28;20002;-67
2023/03/22 15:36:52;;;;;;;;;;;;;;;;;;5111487;28;20394;-68
2023/03/22 15:39:18;;;;;;;;;;;;;;;;;;5112351;28;20010;-68
2023/03/22 15:41:44;;;;;;;;;;;;;;;;;;5130064;28;20324;-69
2023/03/22 15:44:11;;;;;;;;;;;;;;;;;;5130465;28;19931;-68
2023/03/22 15:48:56;;;;;;;;;;;;;;;;;;5110632;27;19923;-68
2023/03/22 15:51:22;;;;;;;;;;;;;;;;;;5111756;28;20354;-68
2023/03/22 15:53:48;;;;;;;;;;;;;;;;;;5111238;28;19908;-68
2023/03/22 16:00:50;;;;;;;;;;;;;;;;;;5112026;27;19913;-68
2023/03/22 16:03:16;;;;;;;;;;;;;;;;;;5111640;28;19918;-67
2023/03/22 16:07:57;;;;;;;;;;;;;;;;;;5111968;27;19923;-67
2023/03/22 16:10:23;;;;;;;;;;;;;;;;;;5111889;28;19923;-68
2023/03/22 16:16:01;;;;;;;;;;;;;;;;;;5111540;27;19912;-68
2023/03/22 16:18:27;;;;;;;;;;;;;;;;;;5110498;28;20022;-68
2023/03/22 16:23:16;;;;;;;;;;;;;;;;;;5111428;27;20340;-67
2023/03/22 16:25:42;;;;;;;;;;;;;;;;;;5111648;28;19912;-68
2023/03/22 16:28:08;;;;;;;;;;;;;;;;;;5111706;28;19914;-68
2023/03/22 16:30:34;;;;;;;;;;;;;;;;;;5110136;28;19908;-67
2023/03/22 16:33:00;;;;;;;;;;;;;;;;;;5111682;28;20372;-68
2023/03/22 16:36:25;;;;;;;;;;;;;;;;;;5091481;27;19918;-67
2023/03/22 16:39:41;;;;;;;;;;;;;;;;;;5111947;27;19916;-68
2023/03/22 16:42:22;;;;;;;;;;;;;;;;;;5112537;27;19912;-68
2023/03/22 16:44:48;;;;;;;;;;;;;;;;;;5111205;28;19912;-68
2023/03/22 16:47:14;;;;;;;;;;;;;;;;;;5111454;28;19974;-68
2023/03/22 16:49:40;;;;;;;;;;;;;;;;;;5111349;28;20043;-67
2023/03/22 17:01:39;;;;;;;;;;;;;;;;;;5112556;27;19912;-69
2023/03/22 17:04:05;;;;;;;;;;;;;;;;;;5111501;28;20337;-67
2023/03/22 17:11:50;;;;;;;;;;;;;;;;;;5153093;27;19919;-67
2023/03/22 17:20:48;;;;;;;;;;;;;;;;;;5112379;27;19920;-69
2023/03/22 17:23:14;;;;;;;;;;;;;;;;;;5110506;28;19955;-68
2023/03/22 17:27:56;;;;;;;;;;;;;;;;;;5112458;27;19912;-69
2023/03/22 17:30:22;;;;;;;;;;;;;;;;;;5111816;28;20419;-68
2023/03/22 17:37:19;;;;;;;;;;;;;;;;;;5091955;28;20284;-68
2023/03/22 17:39:45;;;;;;;;;;;;;;;;;;5089814;28;20360;-69
2023/03/22 17:42:11;;;;;;;;;;;;;;;;;;5091635;28;19931;-69
2023/03/22 17:44:37;;;;;;;;;;;;;;;;;;5091366;28;19908;-69
2023/03/22 17:47:03;;;;;;;;;;;;;;;;;;5091090;28;19995;-68
2023/03/22 17:49:29;;;;;;;;;;;;;;;;;;5091203;28;19961;-67
2023/03/22 17:51:55;;;;;;;;;;;;;;;;;;5091077;28;19908;-68
2023/03/22 17:54:21;;;;;;;;;;;;;;;;;;5089512;28;20253;-68
2023/03/22 17:56:47;;;;;;;;;;;;;;;;;;5089617;28;19920;-68
2023/03/22 17:59:13;;;;;;;;;;;;;;;;;;5091012;28;19909;-68
2023/03/22 18:01:39;;;;;;;;;;;;;;;;;;5090512;28;19915;-68
2023/03/22 18:04:05;;;;;;;;;;;;;;;;;;5090940;28;20010;-67
2023/03/22 18:06:31;;;;;;;;;;;;;;;;;;5090889;28;20299;-69
2023/03/22 18:08:57;;;;;;;;;;;;;;;;;;5090518;28;19916;-69
2023/03/22 18:11:23;;;;;;;;;;;;;;;;;;5090754;28;20003;-68
2023/03/22 18:13:50;;;;;;;;;;;;;;;;;;5091222;28;20276;-67
2023/03/22 18:16:16;;;;;;;;;;;;;;;;;;5090235;28;19979;-69
2023/03/22 18:18:42;;;;;;;;;;;;;;;;;;5090646;28;19908;-67
2023/03/22 18:21:08;;;;;;;;;;;;;;;;;;5090394;28;19909;-67
2023/03/22 18:23:34;;;;;;;;;;;;;;;;;;5090033;28;20262;-67
2023/03/22 18:26:01;;;;;;;;;;;;;;;;;;5090476;28;19908;-68
2023/03/22 18:28:27;;;;;;;;;;;;;;;;;;5089931;28;19915;-67
2023/03/22 18:30:53;;;;;;;;;;;;;;;;;;5088986;28;19908;-67
2023/03/22 18:33:18;;;;;;;;;;;;;;;;;;5090286;28;19916;-68
2023/03/22 18:35:44;;;;;;;;;;;;;;;;;;5097315;28;19926;-66
2023/03/22 18:38:11;;;;;;;;;;;;;;;;;;5110496;28;20008;-66
2023/03/22 18:40:37;;;;;;;;;;;;;;;;;;5110459;28;19912;-66
2023/03/22 18:43:03;;;;;;;;;;;;;;;;;;5091755;28;19977;-66
2023/03/22 18:45:29;;;;;;;;;;;;;;;;;;5092157;28;20364;-66
2023/03/22 18:47:55;;;;;;;;;;;;;;;;;;5100705;28;19934;-66
2023/03/22 18:50:21;;;;;;;;;;;;;;;;;;5096287;28;19912;-67
2023/03/22 18:52:50;;;;;;;;;;;;;;;;;;5078416;28;19912;-67
2023/03/22 18:55:16;;;;;;;;;;;;;;;;;;5078318;28;19958;-68
2023/03/22 18:57:42;;;;;;;;;;;;;;;;;;5096229;28;20368;-67
2023/03/22 19:00:09;;;;;;;;;;;;;;;;;;5096490;28;19916;-67
2023/03/22 19:02:35;;;;;;;;;;;;;;;;;;5078408;28;19999;-67